createdAt,value
2019-02-28T00:01:11.706Z,53.25
2019-02-28T00:03:20.259Z,53.83
2019-02-28T00:05:26.618Z,52.62
2019-02-28T00:07:33.306Z,57.73
2019-02-28T00:09:39.959Z,50.83
2019-02-28T00:11:46.607Z,48.95
2019-02-28T00:13:55.830Z,56.55
2019-02-28T00:16:03.254Z,53.13
2019-02-28T00:18:09.951Z,55.15
2019-02-28T00:20:16.635Z,58.48
2019-02-28T00:22:23.309Z,53.30
2019-02-28T00:24:30.694Z,55.50
2019-02-28T00:26:37.425Z,57.27
2019-02-28T00:28:44.075Z,52.53
2019-02-28T00:30:50.675Z,53.25
2019-02-28T00:32:59.382Z,60.70
2019-02-28T00:35:13.001Z,51.45
2019-02-28T00:37:15.859Z,50.58
2019-02-28T00:39:22.470Z,57.65
2019-02-28T00:41:29.132Z,59.00
2019-02-28T00:43:35.718Z,51.42
2019-02-28T00:45:42.349Z,52.03
2019-02-28T00:47:49.018Z,48.45
2019-02-28T00:49:56.498Z,53.73
2019-02-28T00:52:03.311Z,54.23
2019-02-28T00:54:09.968Z,55.10
2019-02-28T00:56:17.532Z,57.23
2019-02-28T00:58:28.585Z,55.78
2019-02-28T01:00:33.272Z,53.15
2019-02-28T01:02:39.936Z,51.73
2019-02-28T01:04:46.685Z,57.93
2019-02-28T01:06:53.359Z,52.70
2019-02-28T01:09:00.090Z,52.45
2019-02-28T01:11:06.852Z,50.52
2019-02-28T01:13:13.517Z,46.18
2019-02-28T01:15:20.244Z,52.38
2019-02-28T01:17:27.621Z,52.98
2019-02-28T01:19:34.289Z,54.55
2019-02-28T01:21:41.027Z,56.08
2019-02-28T01:23:47.703Z,57.03
2019-02-28T01:25:54.365Z,49.42
2019-02-28T01:28:01.111Z,51.85
2019-02-28T01:30:11.586Z,51.02
2019-02-28T01:32:18.188Z,54.75
2019-02-28T01:34:24.759Z,51.70
2019-02-28T01:36:32.458Z,59.30
2019-02-28T01:38:38.925Z,52.73
2019-02-28T01:40:45.504Z,55.78
2019-02-28T01:42:54.846Z,57.45
2019-02-28T01:45:00.344Z,51.33
2019-02-28T01:47:06.988Z,56.35
2019-02-28T01:49:13.690Z,52.30
2019-02-28T01:51:20.354Z,48.48
2019-02-28T01:53:27.090Z,47.20
2019-02-28T01:55:33.853Z,49.38
2019-02-28T01:57:43.868Z,58.13
2019-02-28T01:59:48.806Z,57.17
2019-02-28T02:01:55.488Z,52.40
2019-02-28T02:04:02.004Z,47.45
2019-02-28T02:06:09.679Z,48.83
2019-02-28T02:08:16.335Z,52.50
2019-02-28T02:10:23.470Z,47.43
2019-02-28T02:12:31.820Z,53.05
2019-02-28T02:14:38.561Z,51.42
2019-02-28T02:16:45.174Z,43.92
2019-02-28T02:18:51.831Z,47.62
2019-02-28T02:21:00.232Z,49.40
2019-02-28T02:23:06.970Z,47.33
2019-02-28T02:25:13.947Z,55.58
2019-02-28T02:27:20.778Z,50.65
2019-02-28T02:29:27.537Z,48.25
2019-02-28T02:31:34.272Z,44.53
2019-02-28T02:33:40.969Z,46.30
2019-02-28T02:35:47.634Z,49.80
2019-02-28T02:37:54.295Z,45.08
2019-02-28T02:40:00.981Z,45.38
2019-02-28T02:42:11.362Z,43.78
2019-02-28T02:44:17.067Z,44.35
2019-02-28T02:46:23.856Z,44.83
2019-02-28T02:48:30.516Z,50.88
2019-02-28T02:50:37.171Z,44.60
2019-02-28T02:52:44.309Z,46.20
2019-02-28T02:54:52.243Z,46.98
2019-02-28T02:56:59.272Z,38.95
2019-02-28T02:59:05.968Z,45.83
2019-02-28T03:01:12.703Z,45.03
2019-02-28T03:03:19.356Z,48.08
2019-02-28T03:05:26.126Z,42.23
2019-02-28T03:07:32.838Z,46.80
2019-02-28T03:09:43.379Z,45.23
2019-02-28T03:11:47.910Z,42.40
2019-02-28T03:13:54.576Z,41.70
2019-02-28T03:16:01.246Z,42.70
2019-02-28T03:18:07.926Z,45.00
2019-02-28T03:20:15.746Z,43.00
2019-02-28T03:22:28.384Z,41.00
2019-02-28T03:24:30.832Z,45.52
2019-02-28T03:26:41.356Z,43.33
2019-02-28T03:28:46.893Z,44.67
2019-02-28T03:30:53.652Z,38.58
2019-02-28T03:33:00.515Z,44.40
2019-02-28T03:35:08.254Z,43.08
2019-02-28T03:37:15.027Z,43.25
2019-02-28T03:39:24.553Z,41.40
2019-02-28T03:41:30.248Z,43.10
2019-02-28T03:43:42.484Z,41.65
2019-02-28T03:45:45.381Z,43.00
2019-02-28T03:47:58.444Z,43.87
2019-02-28T03:50:00.594Z,41.13
2019-02-28T03:52:07.311Z,38.20
2019-02-28T03:54:13.962Z,39.53
2019-02-28T03:56:20.706Z,43.55
2019-02-28T03:58:27.446Z,39.10
2019-02-28T04:00:34.409Z,40.70
2019-02-28T04:02:41.084Z,37.85
2019-02-28T04:04:50.150Z,38.00
2019-02-28T04:06:57.283Z,39.53
2019-02-28T04:09:08.576Z,39.50
2019-02-28T04:11:13.526Z,40.08
2019-02-28T04:13:20.449Z,35.03
2019-02-28T04:15:27.125Z,39.33
2019-02-28T04:17:33.880Z,39.65
2019-02-28T04:19:40.519Z,36.17
2019-02-28T04:21:47.858Z,36.80
2019-02-28T04:23:54.577Z,35.78
2019-02-28T04:26:01.318Z,45.05
2019-02-28T04:28:09.001Z,38.50
2019-02-28T04:30:16.683Z,40.45
2019-02-28T04:32:27.566Z,40.25
2019-02-28T04:34:31.806Z,39.00
2019-02-28T04:36:38.462Z,37.98
2019-02-28T04:38:45.126Z,44.08
2019-02-28T04:40:51.744Z,53.48
2019-02-28T04:42:58.339Z,46.92
2019-02-28T04:45:07.905Z,45.92
2019-02-28T04:47:14.669Z,40.63
2019-02-28T04:49:22.681Z,36.90
2019-02-28T04:51:29.612Z,39.83
2019-02-28T04:53:36.358Z,41.80
2019-02-28T04:55:43.023Z,37.73
2019-02-28T04:57:51.595Z,41.18
2019-02-28T04:59:57.993Z,36.85
2019-02-28T05:02:04.667Z,40.75
2019-02-28T05:04:11.345Z,37.58
2019-02-28T05:06:18.351Z,40.63
2019-02-28T05:08:26.445Z,44.08
2019-02-28T05:10:33.190Z,43.20
2019-02-28T05:12:40.963Z,44.85
2019-02-28T05:14:47.981Z,43.65
2019-02-28T05:16:54.709Z,42.35
2019-02-28T05:19:01.534Z,43.78
2019-02-28T05:21:08.872Z,45.17
2019-02-28T05:23:15.815Z,44.25
2019-02-28T05:25:22.576Z,45.28
2019-02-28T05:27:34.851Z,47.38
2019-02-28T05:29:37.607Z,42.53
2019-02-28T05:31:44.354Z,42.98
2019-02-28T05:33:52.022Z,41.60
2019-02-28T05:36:00.291Z,44.10
2019-02-28T05:38:07.070Z,47.15
2019-02-28T05:40:15.649Z,46.58
2019-02-28T05:42:23.353Z,42.83
2019-02-28T05:44:30.794Z,46.75
2019-02-28T05:46:37.470Z,44.42
2019-02-28T05:48:44.231Z,42.38
2019-02-28T05:50:53.327Z,43.65
2019-02-28T05:53:00.298Z,45.33
2019-02-28T05:55:09.554Z,41.35
2019-02-28T05:57:16.240Z,38.95
2019-02-28T05:59:26.161Z,45.67
2019-02-28T06:01:31.332Z,52.88
2019-02-28T06:03:38.024Z,51.37
2019-02-28T06:05:46.422Z,43.68
2019-02-28T06:07:53.097Z,44.00
2019-02-28T06:09:59.869Z,47.53
2019-02-28T06:12:09.328Z,45.25
2019-02-28T06:14:15.067Z,42.05
2019-02-28T06:16:21.759Z,49.40
2019-02-28T06:18:32.669Z,51.58
2019-02-28T06:20:36.779Z,77.65
2019-02-28T06:22:43.462Z,75.10
2019-02-28T06:24:50.522Z,64.22
2019-02-28T06:26:57.249Z,49.27
2019-02-28T06:29:04.976Z,47.43
2019-02-28T06:31:14.334Z,47.08
2019-02-28T06:33:21.288Z,50.15
2019-02-28T06:35:28.205Z,46.75
2019-02-28T06:37:35.414Z,43.70
2019-02-28T06:39:43.238Z,49.50
2019-02-28T06:41:49.928Z,47.58
2019-02-28T06:43:57.679Z,40.48
2019-02-28T06:46:04.398Z,42.53
2019-02-28T06:48:11.012Z,52.45
2019-02-28T06:50:18.178Z,43.38
2019-02-28T06:52:25.306Z,43.30
2019-02-28T06:54:32.789Z,42.85
2019-02-28T06:56:39.522Z,51.33
2019-02-28T06:58:46.123Z,46.58
2019-02-28T07:00:52.792Z,46.68
2019-02-28T07:03:03.254Z,47.80
2019-02-28T07:05:08.286Z,46.33
2019-02-28T07:07:15.024Z,50.92
2019-02-28T07:09:21.773Z,59.63
2019-02-28T07:11:28.447Z,54.33
2019-02-28T07:13:39.040Z,50.40
2019-02-28T07:15:43.491Z,50.33
2019-02-28T07:17:50.159Z,46.13
2019-02-28T07:20:01.365Z,48.92
2019-02-28T07:22:05.139Z,51.20
2019-02-28T07:24:11.808Z,47.88
2019-02-28T07:26:18.902Z,42.62
2019-02-28T07:28:26.254Z,48.20
2019-02-28T07:30:32.918Z,46.92
2019-02-28T07:32:39.615Z,51.53
2019-02-28T07:34:46.286Z,44.50
2019-02-28T07:36:52.884Z,46.63
2019-02-28T07:39:01.322Z,41.50
2019-02-28T07:41:09.534Z,41.13
2019-02-28T07:43:16.215Z,41.42
2019-02-28T07:45:22.912Z,41.90
2019-02-28T07:47:29.575Z,41.30
2019-02-28T07:49:37.014Z,36.88
2019-02-28T07:51:43.705Z,38.70
2019-02-28T07:53:50.457Z,35.52
2019-02-28T07:55:57.114Z,35.92
2019-02-28T07:58:03.884Z,32.20
2019-02-28T08:00:25.024Z,37.48
2019-02-28T08:02:31.694Z,35.30
2019-02-28T08:04:38.472Z,32.98
2019-02-28T08:06:45.134Z,36.90
2019-02-28T08:08:52.885Z,30.92
2019-02-28T08:10:59.741Z,34.35
2019-02-28T08:13:06.538Z,39.13
2019-02-28T08:15:30.722Z,41.42
2019-02-28T08:17:40.647Z,36.15
2019-02-28T08:19:45.790Z,37.08
2019-02-28T08:21:52.490Z,42.08
2019-02-28T08:23:59.194Z,37.20
2019-02-28T08:26:05.863Z,40.43
2019-02-28T08:28:12.523Z,39.67
2019-02-28T08:30:28.396Z,35.65
2019-02-28T08:32:35.090Z,40.43
2019-02-28T08:34:41.754Z,43.65
2019-02-28T08:36:48.437Z,34.15
2019-02-28T08:38:55.115Z,45.83
2019-02-28T08:41:01.770Z,37.42
2019-02-28T08:43:10.524Z,50.25
2019-02-28T08:45:17.315Z,32.67
2019-02-28T08:47:23.982Z,40.65
2019-02-28T08:49:30.740Z,37.73
2019-02-28T08:51:37.413Z,42.25
2019-02-28T08:53:44.003Z,37.70
2019-02-28T08:55:50.692Z,44.25
2019-02-28T08:58:04.330Z,42.00
2019-02-28T09:00:18.155Z,35.03
2019-02-28T09:02:24.857Z,50.05
2019-02-28T09:04:40.782Z,38.33
2019-02-28T09:06:41.011Z,35.33
2019-02-28T09:08:48.340Z,36.93
2019-02-28T09:10:55.910Z,38.98
2019-02-28T09:13:07.748Z,40.03
2019-02-28T09:15:14.950Z,34.90
2019-02-28T09:17:21.634Z,38.83
2019-02-28T09:19:28.286Z,36.28
2019-02-28T09:21:34.979Z,33.75
2019-02-28T09:23:41.669Z,41.37
2019-02-28T09:25:48.397Z,31.87
2019-02-28T09:27:55.105Z,33.48
2019-02-28T09:30:01.772Z,31.80
2019-02-28T09:32:10.248Z,34.33
2019-02-28T09:34:16.811Z,33.85
2019-02-28T09:36:23.502Z,36.53
2019-02-28T09:38:30.170Z,33.38
2019-02-28T09:40:36.854Z,29.95
2019-02-28T09:42:44.549Z,35.73
2019-02-28T09:44:52.271Z,30.15
2019-02-28T09:46:58.973Z,34.18
2019-02-28T09:49:05.854Z,34.65
2019-02-28T09:51:12.577Z,32.78
2019-02-28T09:53:19.204Z,35.68
2019-02-28T09:55:25.951Z,34.90
2019-02-28T09:57:32.614Z,34.75
2019-02-28T09:59:39.315Z,34.20
2019-02-28T10:01:46.057Z,32.90
2019-02-28T10:03:55.498Z,31.10
2019-02-28T10:06:02.129Z,37.73
2019-02-28T10:08:08.792Z,42.78
2019-02-28T10:10:29.930Z,33.95
2019-02-28T10:12:39.403Z,40.67
2019-02-28T10:14:44.998Z,42.10
2019-02-28T10:16:52.646Z,41.08
2019-02-28T10:19:00.104Z,37.80
2019-02-28T10:21:06.777Z,39.40
2019-02-28T10:23:13.436Z,37.10
2019-02-28T10:25:20.130Z,38.42
2019-02-28T10:27:27.798Z,38.10
2019-02-28T10:29:34.480Z,41.20
2019-02-28T10:31:41.174Z,41.80
2019-02-28T10:33:49.527Z,42.62
2019-02-28T10:35:56.239Z,46.65
2019-02-28T10:38:02.944Z,38.80
2019-02-28T10:40:17.939Z,43.08
2019-02-28T10:42:26.415Z,48.70
2019-02-28T10:44:33.109Z,39.92
2019-02-28T10:46:39.795Z,53.20
2019-02-28T10:48:50.817Z,42.45
2019-02-28T10:50:54.852Z,52.62
2019-02-28T10:53:05.630Z,42.83
2019-02-28T10:55:13.475Z,47.17
2019-02-28T10:57:20.164Z,56.37
2019-02-28T10:59:26.922Z,47.13
2019-02-28T11:01:33.598Z,53.80
2019-02-28T11:03:40.360Z,46.63
2019-02-28T11:05:47.297Z,46.80
2019-02-28T11:07:54.227Z,44.08
2019-02-28T11:10:02.100Z,51.75
2019-02-28T11:12:09.179Z,43.90
2019-02-28T11:14:16.984Z,50.30
2019-02-28T11:16:24.471Z,48.73
2019-02-28T11:18:32.137Z,49.33
2019-02-28T11:20:40.612Z,42.25
2019-02-28T11:22:47.298Z,48.45
2019-02-28T11:24:54.239Z,52.25
2019-02-28T11:27:00.907Z,47.78
2019-02-28T11:29:07.688Z,38.25
2019-02-28T11:31:16.377Z,47.20
2019-02-28T11:33:23.420Z,45.70
2019-02-28T11:35:30.709Z,51.05
2019-02-28T11:37:37.681Z,47.60
2019-02-28T11:39:44.335Z,46.53
2019-02-28T11:41:52.654Z,47.58
2019-02-28T11:43:59.443Z,47.10
2019-02-28T11:46:07.106Z,45.43
2019-02-28T11:48:20.148Z,43.83
2019-02-28T11:50:26.082Z,46.98
2019-02-28T11:52:32.745Z,44.75
2019-02-28T11:54:39.455Z,47.40
2019-02-28T11:56:46.124Z,48.33
2019-02-28T11:58:52.858Z,43.40
2019-02-28T12:00:59.559Z,46.23
2019-02-28T12:03:06.506Z,47.05
2019-02-28T12:05:15.690Z,45.15
2019-02-28T12:07:21.647Z,42.80
2019-02-28T12:09:28.318Z,51.10
2019-02-28T12:11:36.484Z,41.75
2019-02-28T12:13:43.385Z,42.43
2019-02-28T12:15:50.062Z,41.63
2019-02-28T12:17:56.725Z,49.40
2019-02-28T12:20:03.939Z,44.42
2019-02-28T12:22:12.102Z,43.28
2019-02-28T12:24:19.090Z,43.13
2019-02-28T12:26:25.854Z,48.55
2019-02-28T12:28:35.266Z,43.25
2019-02-28T12:30:41.078Z,46.55
2019-02-28T12:32:47.769Z,39.27
2019-02-28T12:34:54.385Z,39.60
2019-02-28T12:37:01.042Z,41.45
2019-02-28T12:39:09.046Z,38.55
2019-02-28T12:41:15.729Z,45.73
2019-02-28T12:43:22.388Z,37.65
2019-02-28T12:45:32.825Z,40.60
2019-02-28T12:47:41.558Z,43.98
2019-02-28T12:49:47.873Z,30.97
2019-02-28T12:51:54.583Z,33.63
2019-02-28T12:54:01.240Z,32.78
2019-02-28T12:56:07.976Z,38.40
2019-02-28T12:58:14.680Z,38.20
2019-02-28T13:00:28.334Z,34.95
2019-02-28T13:02:35.011Z,34.73
2019-02-28T13:04:41.777Z,35.28
2019-02-28T13:06:48.516Z,33.42
2019-02-28T13:08:55.205Z,34.03
2019-02-28T13:11:04.480Z,34.90
2019-02-28T13:13:10.250Z,37.90
2019-02-28T13:15:18.992Z,35.58
2019-02-28T13:17:28.322Z,30.57
2019-02-28T13:19:35.057Z,29.27
2019-02-28T13:21:43.661Z,37.93
2019-02-28T13:23:50.101Z,36.13
2019-02-28T13:25:59.974Z,36.55
2019-02-28T13:28:06.338Z,34.50
2019-02-28T13:30:22.564Z,34.43
2019-02-28T13:32:29.222Z,37.35
2019-02-28T13:34:35.890Z,37.48
2019-02-28T13:36:42.584Z,37.35
2019-02-28T13:38:49.515Z,41.90
2019-02-28T13:40:57.703Z,38.75
2019-02-28T13:43:04.507Z,42.00
2019-02-28T13:45:22.188Z,41.60
2019-02-28T13:47:23.009Z,42.67
2019-02-28T13:49:29.697Z,40.28
2019-02-28T13:51:40.442Z,43.33
2019-02-28T13:53:44.742Z,37.35
2019-02-28T13:55:53.002Z,41.98
2019-02-28T13:57:59.831Z,49.60
2019-02-28T14:00:20.766Z,39.40
2019-02-28T14:02:29.776Z,42.20
2019-02-28T14:04:35.911Z,46.20
2019-02-28T14:06:43.066Z,42.67
2019-02-28T14:08:49.828Z,41.95
2019-02-28T14:10:56.579Z,41.75
2019-02-28T14:13:04.026Z,45.10
2019-02-28T14:15:17.862Z,45.58
2019-02-28T14:17:24.591Z,51.80
2019-02-28T14:19:31.342Z,42.73
2019-02-28T14:21:39.644Z,45.55
2019-02-28T14:23:46.390Z,43.50
2019-02-28T14:25:54.119Z,42.45
2019-02-28T14:28:01.472Z,39.55
2019-02-28T14:30:19.689Z,42.88
2019-02-28T14:32:26.454Z,45.95
2019-02-28T14:34:33.163Z,46.63
2019-02-28T14:36:41.726Z,48.10
2019-02-28T14:38:49.947Z,41.15
2019-02-28T14:40:56.618Z,40.80
2019-02-28T14:43:03.288Z,49.48
2019-02-28T14:45:22.940Z,49.95
2019-02-28T14:47:29.729Z,49.98
2019-02-28T14:49:36.386Z,43.08
2019-02-28T14:51:43.048Z,47.48
2019-02-28T14:53:50.097Z,48.08
2019-02-28T14:55:58.373Z,45.20
2019-02-28T14:58:05.155Z,38.38
2019-02-28T15:00:22.588Z,45.52
2019-02-28T15:02:29.260Z,44.63
2019-02-28T15:04:35.926Z,40.00
2019-02-28T15:06:42.636Z,40.70
2019-02-28T15:08:50.970Z,42.08
2019-02-28T15:10:57.784Z,43.50
2019-02-28T15:13:05.153Z,45.45
2019-02-28T15:15:18.086Z,38.48
2019-02-28T15:17:24.223Z,43.20
2019-02-28T15:19:30.977Z,46.30
2019-02-28T15:21:42.367Z,44.23
2019-02-28T15:23:46.070Z,41.18
2019-02-28T15:25:54.905Z,43.30
2019-02-28T15:28:01.706Z,44.70
2019-02-28T15:30:17.944Z,46.45
2019-02-28T15:32:25.656Z,50.30
2019-02-28T15:34:32.380Z,35.83
2019-02-28T15:36:39.048Z,36.35
2019-02-28T15:38:45.739Z,39.83
2019-02-28T15:40:52.419Z,45.63
2019-02-28T15:42:59.158Z,44.50
2019-02-28T15:45:09.227Z,46.53
2019-02-28T15:47:15.951Z,47.55
2019-02-28T15:49:24.487Z,47.10
2019-02-28T15:51:31.174Z,38.75
2019-02-28T15:53:37.903Z,35.83
2019-02-28T15:55:44.646Z,45.63
2019-02-28T15:57:51.411Z,42.50
2019-02-28T15:59:58.655Z,43.50
2019-02-28T16:02:06.306Z,44.48
2019-02-28T16:04:13.779Z,39.45
2019-02-28T16:06:20.662Z,45.25
2019-02-28T16:08:28.818Z,48.02
2019-02-28T16:10:38.210Z,48.07
2019-02-28T16:12:46.587Z,45.55
2019-02-28T16:14:53.312Z,44.08
2019-02-28T16:17:03.582Z,43.87
2019-02-28T16:19:10.394Z,52.40
2019-02-28T16:21:17.053Z,46.80
2019-02-28T16:23:27.570Z,45.33
2019-02-28T16:25:39.852Z,45.45
2019-02-28T16:27:46.582Z,47.88
2019-02-28T16:29:55.809Z,42.83
2019-02-28T16:32:01.642Z,50.48
2019-02-28T16:34:08.540Z,48.65
2019-02-28T16:36:15.945Z,47.67
2019-02-28T16:38:22.725Z,43.28
2019-02-28T16:40:32.846Z,46.10
2019-02-28T16:42:39.539Z,43.83
2019-02-28T16:44:46.371Z,44.18
2019-02-28T16:46:53.082Z,42.45
2019-02-28T16:48:59.772Z,44.80
2019-02-28T16:51:06.499Z,46.63
2019-02-28T16:53:16.147Z,45.20
2019-02-28T16:55:21.563Z,41.00
2019-02-28T16:57:28.294Z,43.15
2019-02-28T16:59:34.959Z,43.30
2019-02-28T17:01:41.660Z,38.20
2019-02-28T17:03:48.303Z,44.05
2019-02-28T17:05:55.061Z,47.35
2019-02-28T17:08:01.824Z,43.02
2019-02-28T17:10:16.488Z,40.60
2019-02-28T17:12:27.228Z,41.73
2019-02-28T17:14:33.181Z,36.23
2019-02-28T17:16:41.493Z,40.90
2019-02-28T17:18:48.241Z,33.73
2019-02-28T17:20:55.111Z,38.65
2019-02-28T17:23:02.192Z,36.80
2019-02-28T17:25:09.298Z,37.48
2019-02-28T17:27:27.450Z,34.00
2019-02-28T17:29:38.549Z,34.30
2019-02-28T17:31:48.213Z,35.03
2019-02-28T17:33:54.839Z,36.15
2019-02-28T17:36:02.603Z,33.23
2019-02-28T17:38:09.333Z,36.35
2019-02-28T17:40:18.597Z,36.83
2019-02-28T17:42:25.274Z,42.00
2019-02-28T17:44:44.866Z,34.58
2019-02-28T17:47:00.586Z,30.60
2019-02-28T17:49:31.162Z,31.65
2019-02-28T17:51:45.288Z,33.63
2019-02-28T17:54:23.188Z,33.05
2019-02-28T17:57:07.587Z,35.15
2019-02-28T17:59:27.594Z,32.23
2019-02-28T18:01:44.086Z,33.55
2019-02-28T18:04:16.293Z,28.50
2019-02-28T18:06:55.600Z,34.13
2019-02-28T18:09:17.923Z,29.32
2019-02-28T18:12:01.545Z,29.27
2019-02-28T18:14:27.842Z,31.87
2019-02-28T18:16:54.563Z,30.35
2019-02-28T18:19:18.082Z,31.05
2019-02-28T18:21:47.299Z,33.08
2019-02-28T18:24:20.710Z,29.95
2019-02-28T18:27:04.964Z,30.57
2019-02-28T18:29:18.710Z,30.40
2019-02-28T18:31:25.674Z,26.10
2019-02-28T18:33:33.030Z,29.85
2019-02-28T18:35:39.689Z,27.20
2019-02-28T18:37:46.383Z,30.77
2019-02-28T18:39:53.133Z,28.35
2019-02-28T18:41:59.868Z,31.02
2019-02-28T18:44:07.708Z,34.43
2019-02-28T18:46:15.498Z,27.37
2019-02-28T18:48:23.705Z,36.03
2019-02-28T18:50:30.459Z,29.13
2019-02-28T18:52:37.122Z,32.60
2019-02-28T18:54:43.853Z,27.52
2019-02-28T18:56:50.746Z,27.05
2019-02-28T18:58:59.030Z,33.10
2019-02-28T19:01:06.163Z,35.28
2019-02-28T19:03:13.251Z,31.65
2019-02-28T19:05:19.916Z,29.27
2019-02-28T19:07:26.587Z,32.80
2019-02-28T19:09:33.303Z,36.30
2019-02-28T19:11:40.028Z,26.55
2019-02-28T19:13:46.688Z,41.85
2019-02-28T19:15:53.434Z,16.48
2019-02-28T19:18:00.191Z,17.95
2019-02-28T19:20:10.448Z,15.28
2019-02-28T19:22:17.133Z,13.70
2019-02-28T19:24:23.787Z,16.77
2019-02-28T19:26:31.492Z,12.78
2019-02-28T19:28:38.261Z,10.43
2019-02-28T19:30:44.913Z,14.18
2019-02-28T19:32:51.710Z,12.28
2019-02-28T19:34:58.501Z,8.35
2019-02-28T19:37:05.149Z,9.65
2019-02-28T19:39:11.817Z,9.95
2019-02-28T19:41:18.556Z,10.88
2019-02-28T19:43:25.214Z,8.63
2019-02-28T19:45:42.139Z,7.87
2019-02-28T19:47:49.856Z,5.78
2019-02-28T19:49:56.613Z,4.92
2019-02-28T19:52:03.414Z,4.37
2019-02-28T19:54:10.089Z,7.05
2019-02-28T19:56:16.815Z,7.90
2019-02-28T19:58:24.946Z,6.87
2019-02-28T20:00:31.619Z,5.67
2019-02-28T20:02:39.439Z,7.70
2019-02-28T20:04:46.103Z,5.95
2019-02-28T20:06:52.898Z,4.85
2019-02-28T20:08:59.818Z,5.28
2019-02-28T20:11:08.417Z,7.95
2019-02-28T20:13:15.222Z,6.10
2019-02-28T20:15:24.522Z,6.47
2019-02-28T20:17:31.168Z,4.22
2019-02-28T20:19:37.838Z,4.90
2019-02-28T20:21:46.138Z,6.90
2019-02-28T20:23:52.784Z,7.97
2019-02-28T20:25:59.637Z,5.80
2019-02-28T20:28:07.583Z,6.97
2019-02-28T20:30:23.365Z,2.80
2019-02-28T20:32:30.145Z,7.72
2019-02-28T20:34:36.884Z,5.10
2019-02-28T20:36:45.556Z,4.15
2019-02-28T20:38:53.677Z,2.62
2019-02-28T20:41:00.431Z,5.33
2019-02-28T20:43:07.569Z,4.50
2019-02-28T20:45:14.463Z,5.37
2019-02-28T20:47:22.308Z,3.98
2019-02-28T20:49:29.080Z,4.20
2019-02-28T20:51:39.880Z,4.67
2019-02-28T20:53:48.053Z,3.42
2019-02-28T20:55:54.774Z,5.40
2019-02-28T20:58:01.531Z,5.70
2019-02-28T21:00:17.201Z,4.85
2019-02-28T21:02:25.878Z,4.55
2019-02-28T21:04:32.572Z,3.27
2019-02-28T21:06:40.710Z,5.67
2019-02-28T21:08:48.895Z,5.50
2019-02-28T21:10:55.655Z,5.00
2019-02-28T21:13:02.310Z,6.03
2019-02-28T21:15:12.211Z,4.30
2019-02-28T21:17:18.883Z,4.22
2019-02-28T21:19:25.604Z,4.17
2019-02-28T21:21:33.368Z,5.58
2019-02-28T21:23:40.050Z,3.33
2019-02-28T21:25:46.723Z,4.90
2019-02-28T21:27:53.444Z,5.45
2019-02-28T21:30:00.350Z,4.28
2019-02-28T21:32:08.662Z,5.33
2019-02-28T21:34:15.384Z,5.43
2019-02-28T21:36:22.139Z,4.58
2019-02-28T21:38:29.961Z,6.62
2019-02-28T21:40:36.837Z,8.20
2019-02-28T21:42:43.933Z,6.90
2019-02-28T21:44:50.608Z,7.10
2019-02-28T21:46:57.367Z,5.08
2019-02-28T21:49:04.257Z,6.08
2019-02-28T21:51:10.962Z,5.83
2019-02-28T21:53:17.727Z,6.65
2019-02-28T21:55:24.506Z,5.92
2019-02-28T21:57:31.156Z,8.78
2019-02-28T21:59:39.465Z,9.43
2019-02-28T22:01:46.130Z,8.43
2019-02-28T22:03:52.860Z,6.97
2019-02-28T22:05:59.576Z,7.37
2019-02-28T22:08:06.284Z,7.50
2019-02-28T22:10:16.867Z,6.50
2019-02-28T22:12:23.515Z,9.40
2019-02-28T22:14:30.217Z,4.72
2019-02-28T22:16:36.992Z,4.70
2019-02-28T22:18:43.638Z,6.42
2019-02-28T22:20:50.640Z,4.75
2019-02-28T22:22:57.307Z,6.75
2019-02-28T22:25:04.662Z,3.22
2019-02-28T22:27:11.338Z,4.75
2019-02-28T22:29:17.989Z,4.47
2019-02-28T22:31:29.069Z,5.03
2019-02-28T22:33:43.940Z,7.65
2019-02-28T22:35:57.986Z,5.35
2019-02-28T22:38:04.633Z,6.45
2019-02-28T22:40:12.396Z,8.58
2019-02-28T22:42:22.459Z,6.87
2019-02-28T22:44:27.451Z,9.18
2019-02-28T22:46:34.202Z,7.83
2019-02-28T22:48:40.853Z,11.18
2019-02-28T22:50:47.580Z,13.20
2019-02-28T22:52:55.242Z,12.95
2019-02-28T22:55:03.135Z,11.50
2019-02-28T22:57:09.835Z,8.80
2019-02-28T22:59:16.536Z,8.58
2019-02-28T23:01:25.889Z,13.72
2019-02-28T23:03:34.698Z,11.95
2019-02-28T23:05:41.396Z,12.37
2019-02-28T23:07:48.048Z,13.30
2019-02-28T23:09:54.783Z,12.63
2019-02-28T23:12:01.541Z,17.32
2019-02-28T23:14:08.202Z,17.67
2019-02-28T23:16:14.854Z,15.13
2019-02-28T23:18:21.545Z,17.30
2019-02-28T23:20:28.200Z,19.87
2019-02-28T23:22:34.870Z,25.15
2019-02-28T23:24:41.547Z,19.62
2019-02-28T23:27:17.007Z,21.15
2019-02-28T23:29:25.267Z,23.92
2019-02-28T23:31:47.973Z,25.08
2019-02-28T23:34:01.329Z,24.65
2019-02-28T23:36:06.533Z,28.07
2019-02-28T23:38:13.214Z,29.75
2019-02-28T23:40:19.946Z,30.15
2019-02-28T23:42:26.608Z,34.05
2019-02-28T23:44:33.295Z,33.85
2019-02-28T23:46:39.877Z,30.85
2019-02-28T23:48:46.540Z,31.75
2019-02-28T23:50:53.292Z,30.68
2019-02-28T23:53:00.031Z,32.58
2019-02-28T23:55:09.284Z,32.63
2019-02-28T23:57:16.048Z,33.15
2019-02-28T23:59:22.709Z,35.05
